EHLE

Lelystad Airport

Airport
ICAO code
EHLE
IATA Code
LEY
Summary
ICAO Region
EUR
ICAO Territory
Location

Lelystad, Flevoland

Serving
Lelystad
Elevation
-13 ft
Coordinates
52° 27' 37" N , 5° 31' 38" E
KCC
Cfb
Metar
Observation
EHLE 081555Z AUTO 36010KT 330V030 9999 NSC 22/14 Q1026 NOSIG
Station
Lelystad
Date/Time
2022-08-08 15:55:00
Wind direction
360°
Wind speed
10 kts
Lowest cloud amount
nil significant cloud
Temperature
22°C
Dew point
14°C
Humidity
60%
QNH
1026 hPa
Weather condition
n/a

Lelystad Airport is an airport 3.5 nm south southeast of Lelystad, Netherlands.

Climatology

Temperate Marine climate/Oceanic climate (Köppen climate classification Cfb) - Moderately cool summer and comparatively warm winter.

Runways

Designator Length Width Surface Rops
23/5 430 50 Grass No/No
5/23 1250 30 PEM No/No

Airport map

Aerial View

SKYbrary Partners:

Safety knowledge contributed by: